Time;durP1;ratioP1;P1;durP2;ratioP2;P2;SDS_P1;SDS_P2;PMS_P1;PMS_P2;Temp;Humidity;BMP_temperature;BMP_pressure;BME280_temperature;BME280_humidity;BME280_pressure;Samples;Min_cycle;Max_cycle;Signal;HPM_P1;HPM_P2
2021/12/21 00:01:55;;;;;;;3.83;1.83;;;;;;;;;;5011827;28;20024;-61
2021/12/21 00:04:21;;;;;;;3.67;1.75;;;;;;;;;;5012969;28;20033;-60
2021/12/21 00:06:47;;;;;;;2.58;1.55;;;;;;;;;;5012320;28;20490;-61
2021/12/21 00:09:14;;;;;;;2.50;1.65;;;;;;;;;;5013152;28;20026;-61
2021/12/21 00:11:40;;;;;;;2.20;1.30;;;;;;;;;;5011707;28;20030;-60
2021/12/21 00:14:20;;;;;;;2.45;1.40;;;;;;;;;;5011526;28;20842;-61
2021/12/21 00:17:04;;;;;;;2.10;1.67;;;;;;;;;;5009528;28;20044;-61
2021/12/21 00:22:08;;;;;;;3.00;1.60;;;;;;;;;;5012209;28;20030;-61
2021/12/21 00:24:44;;;;;;;2.83;1.40;;;;;;;;;;5012773;28;20451;-61
2021/12/21 00:27:10;;;;;;;2.70;1.45;;;;;;;;;;5012123;28;20026;-61
2021/12/21 00:29:36;;;;;;;3.13;1.58;;;;;;;;;;5011480;28;20084;-62
2021/12/21 00:32:03;;;;;;;1.98;1.30;;;;;;;;;;5012085;28;20383;-63
2021/12/21 00:34:28;;;;;;;2.92;1.55;;;;;;;;;;5011314;28;20038;-63
2021/12/21 00:36:55;;;;;;;2.88;1.48;;;;;;;;;;5008593;28;20025;-63
2021/12/21 00:39:21;;;;;;;2.38;1.52;;;;;;;;;;5012781;28;20117;-63
2021/12/21 00:41:47;;;;;;;2.75;1.80;;;;;;;;;;5011457;28;20030;-63
2021/12/21 00:44:13;;;;;;;3.15;1.67;;;;;;;;;;5012188;28;20022;-63
2021/12/21 00:46:39;;;;;;;2.67;1.85;;;;;;;;;;5011636;28;20030;-63
2021/12/21 00:49:13;;;;;;;2.65;1.80;;;;;;;;;;5011935;28;20464;-63
2021/12/21 00:51:40;;;;;;;3.00;1.33;;;;;;;;;;5011003;28;20062;-63
2021/12/21 00:54:06;;;;;;;2.30;1.25;;;;;;;;;;5011972;28;20018;-63
2021/12/21 00:56:32;;;;;;;2.58;1.40;;;;;;;;;;5010875;28;20112;-63
2021/12/21 00:58:58;;;;;;;3.53;1.92;;;;;;;;;;5010739;28;20043;-63
2021/12/21 01:01:24;;;;;;;3.45;1.48;;;;;;;;;;5012312;28;20018;-63
2021/12/21 01:03:53;;;;;;;2.85;1.38;;;;;;;;;;5010710;28;20749;-63
2021/12/21 01:11:54;;;;;;;2.25;1.55;;;;;;;;;;5003161;28;20475;-63
2021/12/21 01:17:13;;;;;;;3.20;1.80;;;;;;;;;;5012871;28;20044;-63
2021/12/21 01:22:23;;;;;;;4.38;1.65;;;;;;;;;;5013431;28;20120;-63
2021/12/21 01:27:31;;;;;;;2.00;1.45;;;;;;;;;;5013575;28;20038;-63
2021/12/21 01:33:19;;;;;;;2.03;1.20;;;;;;;;;;5013644;28;20037;-63
2021/12/21 01:35:20;;;;;;;2.63;1.70;;;;;;;;;;5010204;28;20418;-63
2021/12/21 01:38:03;;;;;;;2.47;1.33;;;;;;;;;;5012890;28;20021;-63
2021/12/21 01:40:40;;;;;;;3.15;1.80;;;;;;;;;;5012093;28;20057;-63
2021/12/21 01:43:44;;;;;;;3.25;1.52;;;;;;;;;;5013221;28;20049;-63
2021/12/21 01:51:27;;;;;;;2.25;1.30;;;;;;;;;;5012524;28;20029;-63
2021/12/21 01:53:54;;;;;;;3.10;1.48;;;;;;;;;;5011101;28;20018;-63
2021/12/21 01:56:20;;;;;;;2.70;1.42;;;;;;;;;;5012999;28;20092;-63
2021/12/21 01:58:46;;;;;;;2.85;1.52;;;;;;;;;;5012044;28;20097;-63
2021/12/21 02:01:13;;;;;;;3.25;1.60;;;;;;;;;;5012435;28;20022;-63
2021/12/21 02:03:41;;;;;;;1.88;1.40;;;;;;;;;;5011809;28;20068;-63
2021/12/21 02:06:07;;;;;;;2.53;1.60;;;;;;;;;;5012909;28;20109;-63
2021/12/21 02:08:33;;;;;;;1.92;1.23;;;;;;;;;;5011529;28;20034;-64
2021/12/21 02:11:04;;;;;;;2.08;1.67;;;;;;;;;;5010954;28;20583;-63
2021/12/21 02:13:32;;;;;;;2.55;1.35;;;;;;;;;;5013008;28;20030;-63
2021/12/21 02:15:59;;;;;;;2.35;1.30;;;;;;;;;;5011615;28;20029;-63
2021/12/21 02:20:58;;;;;;;2.15;1.42;;;;;;;;;;5011734;28;20030;-63
2021/12/21 02:23:33;;;;;;;2.28;1.58;;;;;;;;;;5012926;28;20068;-63
2021/12/21 02:31:07;;;;;;;2.53;1.50;;;;;;;;;;5012116;28;20033;-63
2021/12/21 02:33:34;;;;;;;1.65;1.30;;;;;;;;;;5012608;28;20129;-63
2021/12/21 02:36:00;;;;;;;2.30;1.50;;;;;;;;;;5011685;28;20094;-63
2021/12/21 02:38:26;;;;;;;1.95;1.10;;;;;;;;;;5012278;28;20038;-63
2021/12/21 02:40:53;;;;;;;3.40;1.65;;;;;;;;;;5011131;28;20025;-63
2021/12/21 02:43:19;;;;;;;3.88;2.15;;;;;;;;;;5012218;28;20034;-63
2021/12/21 02:45:45;;;;;;;2.70;1.70;;;;;;;;;;5011553;28;20025;-63
2021/12/21 02:48:11;;;;;;;2.58;1.50;;;;;;;;;;5011701;28;20018;-63
2021/12/21 02:50:38;;;;;;;2.42;1.80;;;;;;;;;;5012059;28;20084;-63
2021/12/21 02:53:04;;;;;;;3.03;1.50;;;;;;;;;;5011479;28;20049;-63
2021/12/21 02:55:30;;;;;;;2.50;1.58;;;;;;;;;;5009196;28;20037;-63
2021/12/21 02:57:57;;;;;;;2.42;1.25;;;;;;;;;;5010517;28;20052;-63
2021/12/21 03:00:27;;;;;;;2.40;1.33;;;;;;;;;;5010245;28;20088;-63
2021/12/21 03:02:53;;;;;;;2.63;1.67;;;;;;;;;;5011203;28;20105;-63
2021/12/21 03:05:20;;;;;;;2.50;1.73;;;;;;;;;;5011690;28;20030;-63
2021/12/21 03:08:06;;;;;;;2.35;1.50;;;;;;;;;;5011300;28;20026;-63
2021/12/21 03:10:32;;;;;;;3.72;1.80;;;;;;;;;;5011899;28;20439;-63
2021/12/21 03:15:25;;;;;;;2.40;1.35;;;;;;;;;;5012049;28;20065;-63
2021/12/21 03:17:52;;;;;;;2.70;1.63;;;;;;;;;;5010876;28;20100;-63
2021/12/21 03:20:18;;;;;;;3.45;1.70;;;;;;;;;;5011453;28;20487;-63
2021/12/21 03:22:45;;;;;;;4.32;1.67;;;;;;;;;;5011024;28;20048;-63
2021/12/21 03:25:11;;;;;;;2.72;1.88;;;;;;;;;;5011484;28;20030;-63
2021/12/21 03:27:37;;;;;;;2.38;1.73;;;;;;;;;;5011482;28;20045;-63
2021/12/21 03:30:05;;;;;;;2.05;1.40;;;;;;;;;;4994706;28;20634;-63
2021/12/21 03:32:31;;;;;;;2.53;1.60;;;;;;;;;;5011774;28;20030;-63
2021/12/21 03:34:57;;;;;;;2.38;1.42;;;;;;;;;;5010816;28;20038;-63
2021/12/21 03:37:23;;;;;;;3.53;1.40;;;;;;;;;;5011757;28;20113;-63
2021/12/21 03:39:51;;;;;;;2.65;1.50;;;;;;;;;;5010156;28;20029;-63
2021/12/21 03:42:18;;;;;;;1.65;1.20;;;;;;;;;;5011492;28;20459;-63
2021/12/21 03:44:47;;;;;;;2.35;1.70;;;;;;;;;;5010955;28;20029;-63
2021/12/21 03:47:16;;;;;;;2.22;1.45;;;;;;;;;;5011789;28;20019;-63
2021/12/21 03:52:16;;;;;;;2.10;1.40;;;;;;;;;;5011029;28;20030;-63
2021/12/21 03:54:46;;;;;;;2.28;1.52;;;;;;;;;;5010459;28;20064;-63
2021/12/21 03:57:13;;;;;;;1.73;1.27;;;;;;;;;;5011182;28;20460;-63
2021/12/21 03:59:41;;;;;;;2.90;1.60;;;;;;;;;;5011264;28;20084;-63
2021/12/21 04:02:08;;;;;;;1.95;1.67;;;;;;;;;;5011105;28;20034;-63
2021/12/21 04:04:34;;;;;;;2.10;1.42;;;;;;;;;;5011039;28;20095;-63
2021/12/21 04:07:00;;;;;;;4.28;1.83;;;;;;;;;;5010741;28;20629;-63
2021/12/21 04:09:26;;;;;;;2.10;1.58;;;;;;;;;;5015215;28;20049;-63
2021/12/21 04:11:52;;;;;;;2.95;1.58;;;;;;;;;;5014053;28;20062;-63
2021/12/21 04:14:19;;;;;;;3.03;1.50;;;;;;;;;;5014931;28;20037;-63
2021/12/21 04:16:45;;;;;;;3.08;1.88;;;;;;;;;;5014186;28;20075;-63
2021/12/21 04:19:13;;;;;;;2.95;1.88;;;;;;;;;;5014258;28;20045;-63
2021/12/21 04:21:39;;;;;;;2.63;1.58;;;;;;;;;;5014535;28;20105;-63
2021/12/21 04:24:05;;;;;;;1.95;1.30;;;;;;;;;;5014247;28;20030;-63
2021/12/21 04:26:31;;;;;;;3.17;1.50;;;;;;;;;;5014561;28;20034;-63
2021/12/21 04:28:57;;;;;;;2.03;1.58;;;;;;;;;;5013882;28;20030;-63
2021/12/21 04:31:23;;;;;;;2.58;1.50;;;;;;;;;;5014018;28;20030;-60
2021/12/21 04:33:49;;;;;;;2.22;1.45;;;;;;;;;;5013320;28;20034;-63
2021/12/21 04:36:15;;;;;;;1.85;1.25;;;;;;;;;;5011647;28;20360;-63
2021/12/21 04:38:46;;;;;;;2.70;1.45;;;;;;;;;;5013145;28;20521;-63
2021/12/21 04:41:22;;;;;;;2.80;1.73;;;;;;;;;;5013093;28;20030;-63
2021/12/21 04:43:48;;;;;;;2.20;1.40;;;;;;;;;;5012394;28;20411;-63
2021/12/21 04:46:15;;;;;;;7.78;1.80;;;;;;;;;;5013458;28;20029;-63
2021/12/21 04:48:41;;;;;;;3.33;1.60;;;;;;;;;;5012205;28;20039;-63
2021/12/21 04:51:07;;;;;;;3.45;1.75;;;;;;;;;;5012476;28;20035;-63
2021/12/21 04:53:33;;;;;;;2.90;1.85;;;;;;;;;;5014366;28;20534;-63
2021/12/21 04:55:59;;;;;;;1.73;1.40;;;;;;;;;;5012207;28;20398;-63
2021/12/21 04:58:25;;;;;;;4.88;1.75;;;;;;;;;;5014468;28;20030;-63
2021/12/21 05:00:51;;;;;;;3.28;1.80;;;;;;;;;;5010108;28;20036;-63
2021/12/21 05:03:18;;;;;;;3.42;1.70;;;;;;;;;;5013821;28;20068;-63
2021/12/21 05:05:44;;;;;;;2.42;1.30;;;;;;;;;;5013226;28;20034;-63
2021/12/21 05:08:17;;;;;;;2.63;1.50;;;;;;;;;;5013445;28;20022;-63
2021/12/21 05:10:47;;;;;;;4.18;2.35;;;;;;;;;;5013324;28;20415;-63
2021/12/21 05:13:14;;;;;;;2.80;1.45;;;;;;;;;;5013797;28;20525;-63
2021/12/21 05:15:40;;;;;;;1.92;1.33;;;;;;;;;;5013857;28;20041;-63
2021/12/21 05:18:06;;;;;;;2.97;1.45;;;;;;;;;;5012541;28;20571;-63
2021/12/21 05:20:32;;;;;;;3.13;1.50;;;;;;;;;;5011677;28;20096;-63
2021/12/21 05:22:58;;;;;;;2.15;1.60;;;;;;;;;;5012130;28;20030;-63
2021/12/21 05:25:24;;;;;;;2.95;1.50;;;;;;;;;;5013181;28;20036;-63
2021/12/21 05:27:50;;;;;;;2.17;1.60;;;;;;;;;;5012475;28;20029;-66
2021/12/21 05:30:16;;;;;;;2.60;1.65;;;;;;;;;;5012198;28;20058;-62
2021/12/21 05:32:42;;;;;;;2.55;1.48;;;;;;;;;;5011681;28;20076;-61
2021/12/21 05:35:09;;;;;;;3.53;1.45;;;;;;;;;;5011572;28;20038;-63
2021/12/21 05:37:37;;;;;;;3.63;1.73;;;;;;;;;;5013575;28;20026;-63
2021/12/21 05:40:16;;;;;;;2.13;1.70;;;;;;;;;;5012315;28;20141;-63
2021/12/21 05:42:43;;;;;;;2.80;1.50;;;;;;;;;;5013278;28;20028;-63
2021/12/21 05:45:11;;;;;;;2.22;1.25;;;;;;;;;;5012831;28;20037;-58
2021/12/21 05:47:37;;;;;;;1.90;1.30;;;;;;;;;;5013463;28;20084;-62
2021/12/21 05:50:08;;;;;;;2.33;1.73;;;;;;;;;;5011160;28;20026;-63
2021/12/21 05:52:35;;;;;;;2.03;1.60;;;;;;;;;;5013308;28;20029;-63
2021/12/21 05:55:01;;;;;;;2.45;1.73;;;;;;;;;;5011985;28;20041;-63
2021/12/21 05:57:27;;;;;;;2.45;1.52;;;;;;;;;;5012594;28;20061;-63
2021/12/21 05:59:53;;;;;;;2.17;1.30;;;;;;;;;;5011504;28;20026;-63
2021/12/21 06:02:19;;;;;;;2.00;1.25;;;;;;;;;;5009868;28;20025;-63
2021/12/21 06:04:45;;;;;;;2.83;1.42;;;;;;;;;;5004836;28;20037;-63
2021/12/21 06:07:11;;;;;;;2.67;1.58;;;;;;;;;;4997251;28;20026;-63
2021/12/21 06:09:38;;;;;;;2.45;1.60;;;;;;;;;;5003645;28;20021;-63
2021/12/21 06:12:14;;;;;;;2.75;1.98;;;;;;;;;;5003551;28;20030;-63
2021/12/21 06:25:37;;;;;;;3.78;1.20;;;;;;;;;;5005348;28;20034;-63
2021/12/21 06:28:04;;;;;;;2.05;1.67;;;;;;;;;;5002636;28;20030;-64
2021/12/21 06:30:31;;;;;;;2.33;1.40;;;;;;;;;;5001812;28;20034;-64
2021/12/21 06:32:57;;;;;;;2.10;1.30;;;;;;;;;;5001494;28;20045;-63
2021/12/21 06:35:23;;;;;;;3.55;1.65;;;;;;;;;;5002706;28;20102;-64
2021/12/21 06:37:49;;;;;;;2.53;1.30;;;;;;;;;;5004048;28;20030;-66
2021/12/21 06:40:15;;;;;;;2.58;1.60;;;;;;;;;;5011689;28;20084;-65
2021/12/21 06:42:43;;;;;;;3.22;1.40;;;;;;;;;;5011188;28;20053;-65
2021/12/21 06:45:25;;;;;;;3.47;1.58;;;;;;;;;;5011486;28;20161;-66
2021/12/21 06:53:21;;;;;;;5.85;2.42;;;;;;;;;;5011538;28;20116;-62
2021/12/21 06:55:47;;;;;;;3.00;1.40;;;;;;;;;;5011635;28;20125;-60
2021/12/21 06:58:13;;;;;;;14.77;2.38;;;;;;;;;;5007605;28;20061;-63
2021/12/21 07:00:40;;;;;;;9.73;2.10;;;;;;;;;;5007977;28;20046;-62
2021/12/21 07:03:06;;;;;;;5.88;2.05;;;;;;;;;;5012362;28;20034;-63
2021/12/21 07:05:32;;;;;;;7.60;1.95;;;;;;;;;;5011902;28;20029;-63
2021/12/21 07:07:58;;;;;;;4.57;1.58;;;;;;;;;;5010757;28;20034;-62
2021/12/21 07:10:27;;;;;;;8.73;2.00;;;;;;;;;;5011630;28;20030;-62
2021/12/21 07:18:29;;;;;;;7.32;1.73;;;;;;;;;;5011950;28;20096;-62
2021/12/21 07:20:55;;;;;;;4.28;1.67;;;;;;;;;;5011005;28;20030;-63
2021/12/21 07:23:21;;;;;;;2.03;1.30;;;;;;;;;;5011270;28;20030;-64
2021/12/21 07:25:47;;;;;;;3.22;1.50;;;;;;;;;;5011566;28;20108;-63
2021/12/21 07:28:14;;;;;;;7.55;1.83;;;;;;;;;;5011059;28;20108;-63
2021/12/21 07:30:40;;;;;;;4.75;1.60;;;;;;;;;;5011617;28;20056;-63
2021/12/21 07:33:06;;;;;;;3.65;1.77;;;;;;;;;;5003235;28;20026;-61
2021/12/21 07:35:32;;;;;;;3.13;1.63;;;;;;;;;;4996865;28;20034;-60
2021/12/21 07:38:00;;;;;;;3.15;1.30;;;;;;;;;;4990472;28;20030;-60
2021/12/21 07:40:26;;;;;;;2.40;1.33;;;;;;;;;;5007982;28;20022;-61
2021/12/21 07:42:52;;;;;;;3.80;1.48;;;;;;;;;;5011975;28;20117;-60
2021/12/21 07:45:18;;;;;;;2.33;1.10;;;;;;;;;;5014953;28;20049;-61
2021/12/21 07:47:44;;;;;;;2.13;1.50;;;;;;;;;;5022564;28;20050;-63
2021/12/21 07:50:10;;;;;;;7.03;2.03;;;;;;;;;;5013879;28;20065;-64
2021/12/21 07:52:37;;;;;;;6.20;1.90;;;;;;;;;;5014456;28;20038;-64
2021/12/21 07:55:04;;;;;;;3.65;1.73;;;;;;;;;;5014009;28;20026;-61
2021/12/21 07:57:31;;;;;;;4.55;1.52;;;;;;;;;;5010807;28;20064;-61
2021/12/21 07:59:58;;;;;;;4.18;2.15;;;;;;;;;;5013868;28;20022;-60
2021/12/21 08:02:26;;;;;;;6.18;1.88;;;;;;;;;;5014876;28;20022;-61
2021/12/21 08:04:53;;;;;;;5.18;1.90;;;;;;;;;;5010664;28;20022;-60
2021/12/21 08:07:23;;;;;;;5.47;1.45;;;;;;;;;;5010552;28;20054;-60
2021/12/21 08:09:52;;;;;;;3.35;1.58;;;;;;;;;;5013070;28;20029;-60
2021/12/21 08:12:19;;;;;;;4.03;2.00;;;;;;;;;;5014411;28;20029;-60
2021/12/21 08:14:49;;;;;;;3.90;1.48;;;;;;;;;;5014067;28;20049;-61
2021/12/21 08:17:16;;;;;;;4.57;1.67;;;;;;;;;;5012903;28;20061;-61
2021/12/21 08:19:42;;;;;;;5.18;1.70;;;;;;;;;;5014501;28;20111;-61
2021/12/21 08:22:08;;;;;;;5.30;1.58;;;;;;;;;;5013438;28;20471;-62
2021/12/21 08:24:34;;;;;;;2.20;1.40;;;;;;;;;;5014091;28;20022;-62
2021/12/21 08:27:04;;;;;;;4.50;1.50;;;;;;;;;;5008260;28;20022;-60
2021/12/21 08:29:30;;;;;;;7.93;1.42;;;;;;;;;;5006108;28;20038;-61
2021/12/21 08:31:56;;;;;;;5.07;1.52;;;;;;;;;;5010963;28;20026;-59
2021/12/21 08:34:22;;;;;;;4.60;1.30;;;;;;;;;;5013880;28;20030;-61
2021/12/21 08:36:49;;;;;;;4.35;1.83;;;;;;;;;;5013766;28;20037;-61
2021/12/21 08:39:16;;;;;;;5.45;2.28;;;;;;;;;;5013277;28;20034;-61
2021/12/21 08:41:44;;;;;;;5.28;1.73;;;;;;;;;;5014047;28;20026;-61
2021/12/21 08:44:11;;;;;;;4.15;1.90;;;;;;;;;;5011321;28;20109;-60
2021/12/21 08:46:40;;;;;;;5.05;1.88;;;;;;;;;;5014093;28;20092;-60
2021/12/21 08:49:06;;;;;;;2.67;1.30;;;;;;;;;;5013303;28;20026;-60
2021/12/21 08:51:32;;;;;;;1.85;1.42;;;;;;;;;;5013437;28;20030;-60
2021/12/21 08:53:58;;;;;;;4.32;1.65;;;;;;;;;;5011694;28;20060;-59
2021/12/21 08:56:25;;;;;;;3.47;1.67;;;;;;;;;;5012807;28;20050;-60
2021/12/21 08:58:51;;;;;;;8.43;2.30;;;;;;;;;;5006105;28;20033;-60
2021/12/21 09:01:17;;;;;;;4.40;1.90;;;;;;;;;;5013278;28;20030;-60
2021/12/21 09:03:45;;;;;;;3.63;1.88;;;;;;;;;;5013634;28;20033;-60
2021/12/21 09:06:11;;;;;;;2.92;1.52;;;;;;;;;;5012632;28;20471;-60
2021/12/21 09:08:37;;;;;;;3.33;1.80;;;;;;;;;;5012051;28;20033;-60
2021/12/21 09:11:05;;;;;;;4.10;1.60;;;;;;;;;;5012128;28;20033;-61
2021/12/21 09:13:31;;;;;;;4.03;1.90;;;;;;;;;;5013609;28;20018;-60
2021/12/21 09:15:58;;;;;;;2.78;1.77;;;;;;;;;;5012721;28;20029;-60
2021/12/21 09:18:26;;;;;;;5.13;2.13;;;;;;;;;;5013428;28;20022;-60
2021/12/21 09:20:52;;;;;;;3.53;1.90;;;;;;;;;;5012239;28;20034;-60
2021/12/21 09:23:18;;;;;;;3.05;1.80;;;;;;;;;;5012802;28;20038;-60
2021/12/21 09:25:44;;;;;;;2.45;1.50;;;;;;;;;;5011554;28;20022;-60
2021/12/21 09:28:10;;;;;;;4.97;1.98;;;;;;;;;;5004442;28;20041;-60
2021/12/21 09:30:37;;;;;;;5.80;1.73;;;;;;;;;;5012276;28;20017;-60
2021/12/21 09:33:03;;;;;;;5.03;2.25;;;;;;;;;;5012253;28;20033;-60
2021/12/21 09:35:30;;;;;;;4.50;2.30;;;;;;;;;;5012968;28;20045;-60
2021/12/21 09:37:56;;;;;;;4.80;1.70;;;;;;;;;;5012704;28;20030;-60
2021/12/21 09:40:25;;;;;;;3.05;1.63;;;;;;;;;;5012623;28;20084;-60
2021/12/21 09:42:52;;;;;;;3.55;2.08;;;;;;;;;;5013112;28;20076;-60
2021/12/21 09:45:18;;;;;;;3.92;1.75;;;;;;;;;;5011836;28;20029;-60
2021/12/21 09:47:44;;;;;;;2.33;1.25;;;;;;;;;;5012911;28;20018;-60
2021/12/21 09:50:12;;;;;;;4.45;1.52;;;;;;;;;;5012290;28;20552;-60
2021/12/21 09:52:39;;;;;;;5.30;1.75;;;;;;;;;;5012697;28;20045;-60
2021/12/21 09:55:07;;;;;;;2.72;1.70;;;;;;;;;;5011937;28;20427;-60
2021/12/21 09:57:33;;;;;;;4.75;2.40;;;;;;;;;;5004940;28;20058;-61
2021/12/21 09:59:59;;;;;;;5.75;1.88;;;;;;;;;;5011315;28;20040;-54
2021/12/21 10:02:26;;;;;;;5.40;2.42;;;;;;;;;;5007467;28;20108;-60
2021/12/21 10:04:52;;;;;;;5.43;2.42;;;;;;;;;;5011786;28;20477;-60
2021/12/21 10:07:20;;;;;;;4.20;1.60;;;;;;;;;;5011358;28;20045;-60
2021/12/21 10:09:47;;;;;;;4.03;1.77;;;;;;;;;;5012498;28;20371;-60
2021/12/21 10:12:29;;;;;;;2.42;1.52;;;;;;;;;;5011610;28;20022;-60
2021/12/21 10:15:24;;;;;;;4.95;2.05;;;;;;;;;;5012099;28;20033;-60
2021/12/21 10:17:53;;;;;;;4.13;2.03;;;;;;;;;;4994653;28;20120;-60
2021/12/21 10:20:40;;;;;;;4.88;1.88;;;;;;;;;;5012616;28;20552;-60
2021/12/21 10:23:15;;;;;;;3.83;1.73;;;;;;;;;;5012669;28;20033;-60
2021/12/21 10:25:43;;;;;;;5.20;1.83;;;;;;;;;;5012984;28;20113;-60
2021/12/21 10:28:09;;;;;;;3.65;1.83;;;;;;;;;;5010999;28;20030;-60
2021/12/21 10:30:46;;;;;;;4.95;1.90;;;;;;;;;;5012780;28;20022;-60
2021/12/21 10:33:12;;;;;;;4.80;1.95;;;;;;;;;;5012195;28;20097;-60
2021/12/21 10:35:38;;;;;;;3.78;2.17;;;;;;;;;;5012645;28;20129;-60
2021/12/21 10:38:05;;;;;;;7.03;2.45;;;;;;;;;;5011727;28;20061;-60
2021/12/21 10:40:31;;;;;;;4.10;1.77;;;;;;;;;;5012370;28;20030;-60
2021/12/21 10:43:15;;;;;;;3.58;1.77;;;;;;;;;;5011707;28;20022;-60
2021/12/21 10:45:43;;;;;;;4.88;2.15;;;;;;;;;;5012338;28;20057;-61
2021/12/21 10:48:16;;;;;;;3.92;2.00;;;;;;;;;;5011878;28;20029;-60
2021/12/21 10:50:46;;;;;;;4.50;2.13;;;;;;;;;;5012367;28;20143;-60
2021/12/21 10:53:19;;;;;;;2.90;1.85;;;;;;;;;;5011778;28;20026;-60
2021/12/21 10:55:45;;;;;;;4.13;2.05;;;;;;;;;;5011980;28;20090;-60
2021/12/21 10:58:18;;;;;;;3.65;1.90;;;;;;;;;;5009063;28;20161;-60
2021/12/21 11:00:47;;;;;;;4.35;2.00;;;;;;;;;;5012305;28;20017;-60
2021/12/21 11:03:17;;;;;;;3.92;1.85;;;;;;;;;;5011699;28;20045;-60
2021/12/21 11:05:43;;;;;;;3.33;1.60;;;;;;;;;;5011674;28;20084;-60
2021/12/21 11:08:16;;;;;;;3.72;2.20;;;;;;;;;;5003796;28;20022;-59
2021/12/21 11:10:48;;;;;;;3.60;1.60;;;;;;;;;;5012967;28;20029;-60
2021/12/21 11:13:15;;;;;;;3.47;2.03;;;;;;;;;;5011904;28;20521;-59
2021/12/21 11:15:47;;;;;;;3.53;1.88;;;;;;;;;;5011067;28;20042;-60
2021/12/21 11:18:13;;;;;;;2.90;1.73;;;;;;;;;;5013665;28;20022;-59
2021/12/21 11:20:42;;;;;;;16.75;2.03;;;;;;;;;;5016350;28;20116;-60
2021/12/21 11:23:08;;;;;;;3.38;1.60;;;;;;;;;;5015299;28;20037;-59
2021/12/21 11:25:35;;;;;;;2.50;1.80;;;;;;;;;;5016364;28;20121;-60
2021/12/21 11:28:02;;;;;;;3.03;2.05;;;;;;;;;;5014999;28;20030;-59
2021/12/21 11:30:29;;;;;;;4.93;2.35;;;;;;;;;;5016390;28;20348;-59
2021/12/21 11:32:57;;;;;;;4.03;1.83;;;;;;;;;;5016056;28;20076;-59
2021/12/21 11:38:14;;;;;;;4.57;2.30;;;;;;;;;;4988482;28;20048;-59
2021/12/21 11:40:43;;;;;;;4.05;1.75;;;;;;;;;;5014836;28;20484;-60
2021/12/21 11:43:29;;;;;;;2.60;1.50;;;;;;;;;;5014964;28;20022;-60
2021/12/21 11:45:57;;;;;;;4.65;1.70;;;;;;;;;;5021007;28;20026;-61
2021/12/21 11:48:24;;;;;;;3.70;1.83;;;;;;;;;;5021709;28;20109;-60
2021/12/21 11:50:50;;;;;;;3.03;1.80;;;;;;;;;;5015242;28;20044;-61
2021/12/21 11:53:17;;;;;;;2.97;1.60;;;;;;;;;;5014892;28;20034;-61
2021/12/21 11:55:46;;;;;;;5.95;1.65;;;;;;;;;;5015181;28;20407;-60
2021/12/21 11:58:22;;;;;;;4.25;1.88;;;;;;;;;;5013715;28;20108;-61
2021/12/21 12:00:54;;;;;;;3.75;1.48;;;;;;;;;;5015287;28;20116;-61
2021/12/21 12:03:22;;;;;;;5.13;1.70;;;;;;;;;;5014629;28;20032;-61
2021/12/21 12:05:53;;;;;;;2.72;1.35;;;;;;;;;;5014839;28;20041;-62
2021/12/21 12:08:19;;;;;;;3.88;1.90;;;;;;;;;;5009812;28;20357;-60
2021/12/21 12:10:50;;;;;;;4.32;1.30;;;;;;;;;;5014729;28;20534;-61
2021/12/21 12:13:37;;;;;;;4.20;1.80;;;;;;;;;;5013754;28;20031;-61
2021/12/21 12:16:11;;;;;;;3.38;2.08;;;;;;;;;;5021914;28;20030;-59
2021/12/21 12:18:37;;;;;;;2.70;1.30;;;;;;;;;;5013663;28;20021;-59
2021/12/21 12:21:24;;;;;;;7.85;1.80;;;;;;;;;;5013899;28;20038;-59
2021/12/21 12:23:52;;;;;;;4.25;1.50;;;;;;;;;;5013629;28;20037;-59
2021/12/21 12:26:22;;;;;;;5.60;1.83;;;;;;;;;;5012206;28;20044;-59
2021/12/21 12:28:48;;;;;;;3.42;1.40;;;;;;;;;;5013106;28;20037;-59
2021/12/21 12:31:26;;;;;;;5.07;1.98;;;;;;;;;;5013068;28;20026;-59
2021/12/21 12:33:52;;;;;;;3.25;1.58;;;;;;;;;;4999394;28;20033;-59
2021/12/21 12:36:18;;;;;;;5.53;1.83;;;;;;;;;;5013162;28;20041;-59
2021/12/21 12:38:47;;;;;;;4.20;2.80;;;;;;;;;;5006837;28;20013;-59
2021/12/21 12:41:13;;;;;;;3.17;1.85;;;;;;;;;;5008495;28;20037;-59
2021/12/21 12:43:44;;;;;;;4.20;1.85;;;;;;;;;;5012742;28;20041;-59
2021/12/21 12:46:21;;;;;;;3.30;1.80;;;;;;;;;;5014637;28;20029;-59
2021/12/21 12:48:48;;;;;;;4.55;2.00;;;;;;;;;;5014022;28;20022;-59
2021/12/21 12:51:27;;;;;;;2.10;1.50;;;;;;;;;;5013910;28;20021;-59
2021/12/21 12:53:53;;;;;;;3.00;1.52;;;;;;;;;;5000938;28;20057;-59
2021/12/21 12:56:20;;;;;;;2.15;1.48;;;;;;;;;;5012501;28;20089;-59
2021/12/21 12:58:55;;;;;;;4.82;1.77;;;;;;;;;;5014188;28;20471;-59
2021/12/21 13:01:26;;;;;;;3.45;2.10;;;;;;;;;;4995210;28;20378;-59
2021/12/21 13:03:58;;;;;;;3.88;1.80;;;;;;;;;;5013407;28;20053;-59
2021/12/21 13:06:26;;;;;;;2.30;1.42;;;;;;;;;;5012468;28;20041;-59
2021/12/21 13:08:52;;;;;;;2.50;1.20;;;;;;;;;;5004277;28;20028;-59
2021/12/21 13:11:20;;;;;;;2.80;1.77;;;;;;;;;;5012397;28;20026;-59
2021/12/21 13:13:46;;;;;;;2.80;1.63;;;;;;;;;;5014048;28;20063;-59
2021/12/21 13:16:13;;;;;;;1.90;1.40;;;;;;;;;;5013255;28;20026;-59
2021/12/21 13:18:54;;;;;;;2.08;1.40;;;;;;;;;;5013125;28;20494;-59
2021/12/21 13:21:32;;;;;;;3.60;1.92;;;;;;;;;;5013616;28;20036;-59
2021/12/21 13:24:06;;;;;;;2.40;1.30;;;;;;;;;;5013968;28;20112;-59
2021/12/21 13:26:44;;;;;;;2.22;1.38;;;;;;;;;;5012981;28;20519;-59
2021/12/21 13:29:14;;;;;;;2.58;1.25;;;;;;;;;;5013306;28;20026;-59
2021/12/21 13:31:40;;;;;;;4.30;1.80;;;;;;;;;;5013430;28;20018;-59
2021/12/21 13:34:06;;;;;;;1.63;1.40;;;;;;;;;;5012926;28;20026;-59
2021/12/21 13:36:36;;;;;;;2.40;1.25;;;;;;;;;;5013189;28;20045;-59
2021/12/21 13:39:23;;;;;;;2.20;1.52;;;;;;;;;;5006803;28;20030;-59
2021/12/21 13:41:49;;;;;;;3.38;1.10;;;;;;;;;;5004325;28;20038;-59
2021/12/21 13:44:20;;;;;;;2.50;1.23;;;;;;;;;;5013000;28;20021;-59
2021/12/21 13:46:46;;;;;;;1.92;1.02;;;;;;;;;;5012710;28;20034;-59
2021/12/21 13:49:13;;;;;;;3.50;1.38;;;;;;;;;;5012886;28;20033;-59
2021/12/21 13:51:46;;;;;;;1.95;1.08;;;;;;;;;;5013736;28;20026;-59
2021/12/21 13:54:15;;;;;;;2.90;1.40;;;;;;;;;;5012906;28;20036;-59
2021/12/21 13:56:41;;;;;;;3.88;1.40;;;;;;;;;;5012487;28;20368;-59
2021/12/21 13:59:09;;;;;;;1.70;1.10;;;;;;;;;;5012417;28;20030;-59
2021/12/21 14:01:36;;;;;;;3.13;1.63;;;;;;;;;;5012901;28;20073;-59
2021/12/21 14:04:05;;;;;;;2.88;1.20;;;;;;;;;;5013231;28;20029;-59
2021/12/21 14:06:31;;;;;;;2.03;1.27;;;;;;;;;;5012580;28;20510;-59
2021/12/21 14:08:58;;;;;;;3.28;1.45;;;;;;;;;;5003744;28;20029;-61
2021/12/21 14:11:26;;;;;;;2.72;1.77;;;;;;;;;;5012026;28;20029;-59
2021/12/21 14:13:53;;;;;;;2.40;1.48;;;;;;;;;;5012846;28;20026;-59
2021/12/21 14:16:20;;;;;;;2.58;1.27;;;;;;;;;;5011534;28;20109;-59
2021/12/21 14:19:05;;;;;;;1.77;1.30;;;;;;;;;;5012058;28;20033;-59
2021/12/21 14:21:36;;;;;;;3.78;1.40;;;;;;;;;;5011695;28;20022;-59
2021/12/21 14:24:03;;;;;;;3.67;1.17;;;;;;;;;;5012639;28;20164;-60
2021/12/21 14:26:32;;;;;;;2.17;0.95;;;;;;;;;;5011328;28;20466;-59
2021/12/21 14:29:00;;;;;;;1.60;0.88;;;;;;;;;;5012848;28;20032;-59
2021/12/21 14:31:32;;;;;;;2.50;1.50;;;;;;;;;;5011558;28;20029;-59
2021/12/21 14:33:57;;;;;;;;;;;;;;;;;;5012614;28;20577;-59
2021/12/21 14:36:24;;;;;;;1.45;1.15;;;;;;;;;;5011901;28;20012;-59
2021/12/21 14:38:59;;;;;;;1.55;0.80;;;;;;;;;;5012156;28;20097;-59
2021/12/21 14:41:30;;;;;;;2.05;1.30;;;;;;;;;;5022786;28;20427;-59
2021/12/21 14:44:00;;;;;;;1.92;0.90;;;;;;;;;;5016591;28;20037;-59
2021/12/21 14:46:26;;;;;;;2.08;1.23;;;;;;;;;;5011660;28;20036;-59
2021/12/21 14:49:03;;;;;;;4.03;1.23;;;;;;;;;;5028996;28;20478;-59
2021/12/21 14:51:37;;;;;;;3.05;1.23;;;;;;;;;;5012432;28;20080;-59
2021/12/21 14:54:07;;;;;;;3.15;1.10;;;;;;;;;;5027533;28;20371;-59
2021/12/21 14:56:35;;;;;;;3.08;1.60;;;;;;;;;;5012037;28;20063;-59
2021/12/21 14:59:03;;;;;;;2.80;1.40;;;;;;;;;;5008835;28;20497;-59
2021/12/21 15:01:40;;;;;;;2.28;1.40;;;;;;;;;;5018666;28;20038;-59
2021/12/21 15:04:35;;;;;;;2.38;1.60;;;;;;;;;;4992783;28;20026;-59
2021/12/21 15:07:01;;;;;;;2.80;1.35;;;;;;;;;;4987515;28;20543;-60
2021/12/21 15:09:29;;;;;;;1.88;1.00;;;;;;;;;;4995072;28;20177;-59
2021/12/21 15:11:56;;;;;;;2.88;1.40;;;;;;;;;;5011509;28;20132;-60
2021/12/21 15:14:22;;;;;;;3.70;1.33;;;;;;;;;;5011597;28;20026;-60
2021/12/21 15:16:48;;;;;;;2.20;1.10;;;;;;;;;;5011847;28;20071;-63
2021/12/21 15:19:15;;;;;;;1.75;1.10;;;;;;;;;;5011486;28;20422;-60
2021/12/21 15:21:41;;;;;;;4.25;1.27;;;;;;;;;;5012049;28;20030;-63
2021/12/21 15:24:07;;;;;;;4.53;1.77;;;;;;;;;;5011398;28;20030;-63
2021/12/21 15:26:33;;;;;;;2.25;1.00;;;;;;;;;;5004521;28;20026;-64
2021/12/21 15:29:00;;;;;;;3.42;1.30;;;;;;;;;;5001503;28;20109;-64
2021/12/21 15:31:26;;;;;;;2.83;1.20;;;;;;;;;;4998117;28;20018;-59
2021/12/21 15:33:52;;;;;;;2.72;1.50;;;;;;;;;;5005026;28;20065;-58
2021/12/21 15:36:19;;;;;;;4.03;1.48;;;;;;;;;;5000036;28;20117;-58
2021/12/21 15:38:45;;;;;;;3.03;1.52;;;;;;;;;;5001784;28;20130;-58
2021/12/21 15:41:12;;;;;;;3.92;1.38;;;;;;;;;;5000379;28;20091;-59
2021/12/21 15:43:40;;;;;;;5.35;1.40;;;;;;;;;;5008186;28;20483;-59
2021/12/21 15:46:07;;;;;;;2.33;1.38;;;;;;;;;;5011694;28;20033;-62
2021/12/21 15:48:34;;;;;;;3.78;1.60;;;;;;;;;;5001756;28;20026;-61
2021/12/21 15:51:01;;;;;;;3.40;1.48;;;;;;;;;;4995166;28;20029;-54
2021/12/21 15:53:27;;;;;;;5.18;1.85;;;;;;;;;;5010803;28;20026;-56